LGKOLGIR

Guest
Details From LGKO - Kos
To LGIR - Iraklion - Nizos Kazantzakis
Flight Number -
Tags Generated
Created
Modified
Stats Distance 127 nm / 236 km
Max Altitude 0 ft / 0 m
Waypoints 2
Social Downloads 2
Likes 0
Share VATSIM

Download

Looking for another format? Having issues loading an existing format? Contact us
Advertisement - Login to hide

Notes

Generated

Route

LGKO LGIR

ID Type Via Altitude Latitude Longitude Leg Dist Tot Dist Heading (true) Name
O LGKO APT - 0 ft / 0 m 36.80364˚ 27.08364˚ - 0 nm - -
O LGIR APT - 0 ft / 0 m 35.34229˚ 25.18426˚ 127 nm 127 nm 227° / 226° Iraklion - Nizos Kazantzakis

Altitude Profile

Advertisement - Login to hide

LGKO

Details ICAO LGKO (KGS)
Name KOS
Region Greece
Timezone Europe/Athens (UTC+2.0)
Stats Elevation 412 ft / 126 m (AMSL)
Location 36.794403° 27.090764°
Runways 1
Magnetic Variation 4.724° E

METAR

LGKO 162220Z 14017KT 9999 SCT018 17/13 Q1015

Decode

TAF

TAF LGKO 161700Z 1618/1718 15015KT 9999 SCT018 SCT040 PROB30 TEMPO 1620/1624 5000 RA SCT018 BKN040 PROB30 TEMPO 1620/1622 3000 TSRA SCT012 FEW018CB BKN040 BECMG 1618/1620 17020G30KT BECMG 1622/1624 18025G35KT

Decode

Departure Runways

ID Width Length Bearing (true) Bearing (mag) Surface Threshold Offset Overrun Length
14 148 ft / 45 m 7,923 ft / 2,415 m 148.29° 143.57° Asphalt 0 ft / 0 m 240 ft / 73 m
32 148 ft / 45 m 7,923 ft / 2,415 m 328.30° 323.58° Asphalt 0 ft / 0 m 205 ft / 62 m

LGIR

Details ICAO LGIR (HER)
Name Iraklion - Nizos Kazantzakis
Region Greece
Timezone Europe/Athens (UTC+2.0)
Stats Elevation 115 ft / 35 m (AMSL)
Location 35.339487° 25.180120°
Runways 3
Magnetic Variation 4.380° E

METAR

LGIR 162220Z 11008KT 9999 FEW025 16/10 Q1014 NOSIG

Decode

TAF

TAF LGIR 161700Z 1618/1718 18017G30KT 9999 FEW025 BKN070 PROB30 TEMPO 1618/1622 5000 RA BECMG 1708/1710 19015G25KT

Decode

Destination Runways

ID Width Length Bearing (true) Bearing (mag) Surface Threshold Offset Overrun Length
09 148 ft / 45 m 8,755 ft / 2,669 m 94.84° 90.46° Asphalt 1,565 ft / 477 m 200 ft / 61 m
12 164 ft / 50 m 5,136 ft / 1,566 m 126.27° 121.89° Asphalt 499 ft / 152 m 190 ft / 58 m
18 131 ft / 40 m 2,607 ft / 795 m 180.40° 176.02° Asphalt 0 ft / 0 m 0 ft / 0 m
27 148 ft / 45 m 8,755 ft / 2,669 m 274.86° 270.48° Asphalt 0 ft / 0 m 210 ft / 64 m
30 164 ft / 50 m 5,136 ft / 1,566 m 306.28° 301.90° Asphalt 0 ft / 0 m 0 ft / 0 m
36 131 ft / 40 m 2,607 ft / 795 m 0.40° 356.02° Asphalt 328 ft / 100 m 0 ft / 0 m

Popular Alternatives